Time;durP1;ratioP1;P1;durP2;ratioP2;P2;SDS_P1;SDS_P2;PMS_P1;PMS_P2;Temp;Humidity;BMP_temperature;BMP_pressure;BME280_temperature;BME280_humidity;BME280_pressure;Samples;Min_cycle;Max_cycle;Signal;HPM_P1;HPM_P2
2021/09/07 00:01:20;;;;;;;14.10;7.80;;;8.20;99.90;;;;;;5101854;28;20024;-80
2021/09/07 00:03:46;;;;;;;12.68;7.68;;;8.20;99.90;;;;;;5077070;28;20393;-80
2021/09/07 00:06:12;;;;;;;13.32;8.52;;;8.20;99.90;;;;;;5107486;28;20035;-80
2021/09/07 00:08:37;;;;;;;14.52;8.93;;;8.10;99.90;;;;;;5100804;28;20402;-80
2021/09/07 00:11:03;;;;;;;12.48;7.93;;;8.10;99.90;;;;;;5088208;28;20044;-80
2021/09/07 00:13:29;;;;;;;16.35;8.60;;;8.10;99.90;;;;;;5102393;28;20024;-80
2021/09/07 00:15:54;;;;;;;15.55;7.75;;;8.00;99.90;;;;;;5085931;28;20024;-80
2021/09/07 00:18:20;;;;;;;13.57;8.95;;;8.10;99.90;;;;;;5103819;28;20039;-80
2021/09/07 00:20:46;;;;;;;11.75;8.05;;;8.00;99.90;;;;;;5090851;28;20028;-80
2021/09/07 00:23:11;;;;;;;12.00;8.20;;;8.00;99.90;;;;;;5091429;28;20121;-80
2021/09/07 00:25:37;;;;;;;14.10;8.13;;;8.00;99.90;;;;;;5090485;28;20028;-80
2021/09/07 00:28:03;;;;;;;12.57;8.30;;;7.90;99.90;;;;;;5091912;28;20059;-80
2021/09/07 00:30:30;;;;;;;14.70;7.80;;;7.90;99.90;;;;;;5099787;28;20016;-81
2021/09/07 00:32:55;;;;;;;12.10;7.97;;;7.80;99.90;;;;;;5077068;28;20025;-80
2021/09/07 00:35:23;;;;;;;15.50;8.23;;;7.80;99.90;;;;;;5076159;28;20031;-80
2021/09/07 00:37:49;;;;;;;11.70;7.82;;;7.90;99.90;;;;;;5091431;28;20441;-80
2021/09/07 00:40:15;;;;;;;15.60;8.60;;;7.90;99.90;;;;;;5087770;28;20051;-80
2021/09/07 00:42:40;;;;;;;14.27;8.55;;;7.90;99.90;;;;;;5092224;28;20032;-80
2021/09/07 00:45:10;;;;;;;13.55;7.78;;;7.90;99.90;;;;;;5105490;28;20028;-80
2021/09/07 00:47:36;;;;;;;13.48;7.85;;;7.90;99.90;;;;;;5110697;28;20012;-80
2021/09/07 00:50:02;;;;;;;12.63;8.38;;;8.00;99.90;;;;;;5091328;28;20044;-80
2021/09/07 00:52:29;;;;;;;12.88;9.15;;;8.00;99.90;;;;;;5095322;28;20398;-80
2021/09/07 00:54:56;;;;;;;15.20;9.38;;;8.00;99.90;;;;;;5093589;28;20419;-80
2021/09/07 00:57:24;;;;;;;14.35;8.93;;;8.10;99.90;;;;;;5095702;28;20065;-80
2021/09/07 00:59:53;;;;;;;13.73;8.20;;;8.00;99.90;;;;;;5087264;28;20020;-80
2021/09/07 01:02:19;;;;;;;16.20;9.63;;;8.00;99.90;;;;;;5095215;28;20036;-80
2021/09/07 01:04:45;;;;;;;14.43;8.73;;;8.00;99.90;;;;;;5097641;28;20020;-80
2021/09/07 01:07:10;;;;;;;15.50;9.90;;;8.00;99.90;;;;;;5095360;28;20023;-80
2021/09/07 01:09:38;;;;;;;13.95;8.70;;;8.10;99.90;;;;;;5108340;28;20035;-80
2021/09/07 01:12:06;;;;;;;14.65;9.73;;;8.10;99.90;;;;;;5095528;28;20044;-80
2021/09/07 01:14:34;;;;;;;17.10;9.02;;;8.10;99.90;;;;;;5087191;28;20045;-80
2021/09/07 01:17:00;;;;;;;12.18;8.02;;;8.10;99.90;;;;;;5095226;28;20035;-80
2021/09/07 01:19:27;;;;;;;12.85;8.02;;;8.00;99.90;;;;;;5092957;28;20035;-79
2021/09/07 01:21:52;;;;;;;13.88;9.77;;;8.00;99.90;;;;;;5093693;28;20127;-79
2021/09/07 01:24:23;;;;;;;15.77;9.55;;;8.00;99.90;;;;;;5091897;28;20564;-80
2021/09/07 01:26:49;;;;;;;19.88;9.93;;;8.10;99.90;;;;;;5093760;28;20047;-80
2021/09/07 01:29:16;;;;;;;15.13;8.55;;;8.10;99.90;;;;;;5086263;28;20024;-79
2021/09/07 01:31:42;;;;;;;17.17;9.18;;;8.10;99.90;;;;;;5094872;28;20036;-80
2021/09/07 01:34:08;;;;;;;15.52;9.55;;;8.10;99.90;;;;;;5081397;28;20067;-80
2021/09/07 01:36:35;;;;;;;14.05;7.95;;;8.20;99.90;;;;;;5094755;28;20047;-80
2021/09/07 01:39:00;;;;;;;14.00;8.77;;;8.20;99.90;;;;;;5084124;28;20030;-80
2021/09/07 01:41:26;;;;;;;13.95;8.73;;;8.20;99.90;;;;;;5094104;28;20024;-80
2021/09/07 01:43:52;;;;;;;15.20;9.38;;;8.20;99.90;;;;;;5105449;28;20028;-80
2021/09/07 01:46:18;;;;;;;16.00;8.93;;;8.20;99.90;;;;;;5092560;28;20020;-80
2021/09/07 01:48:44;;;;;;;14.55;8.13;;;8.30;99.90;;;;;;5087718;28;20611;-80
2021/09/07 01:51:10;;;;;;;13.27;8.93;;;8.20;99.90;;;;;;5090408;28;20028;-80
2021/09/07 01:53:36;;;;;;;14.10;8.95;;;8.20;99.90;;;;;;5085382;28;20028;-80
2021/09/07 01:56:01;;;;;;;13.07;8.45;;;8.10;99.90;;;;;;5089040;28;20470;-80
2021/09/07 01:58:27;;;;;;;13.90;8.68;;;8.10;99.90;;;;;;5089126;28;20017;-80
2021/09/07 02:00:52;;;;;;;11.85;8.48;;;8.20;99.90;;;;;;5093232;28;20020;-80
2021/09/07 02:03:18;;;;;;;13.98;8.60;;;8.20;99.90;;;;;;5079235;28;20051;-80
2021/09/07 02:05:44;;;;;;;13.43;9.13;;;8.20;99.90;;;;;;5093782;28;20102;-80
2021/09/07 02:08:09;;;;;;;14.20;8.52;;;8.20;99.90;;;;;;5091927;28;20035;-80
2021/09/07 02:10:35;;;;;;;11.70;8.40;;;8.30;99.90;;;;;;5109136;28;20028;-79
2021/09/07 02:13:01;;;;;;;12.13;7.65;;;8.30;99.90;;;;;;5108034;28;20012;-79
2021/09/07 02:15:29;;;;;;;12.10;8.23;;;8.20;99.90;;;;;;5106776;28;20028;-80
2021/09/07 02:17:55;;;;;;;12.07;9.00;;;8.30;99.90;;;;;;5108255;28;20402;-80
2021/09/07 02:20:20;;;;;;;15.52;8.77;;;8.30;99.90;;;;;;5082889;28;20027;-80
2021/09/07 02:22:46;;;;;;;12.88;8.23;;;8.30;99.90;;;;;;5093867;28;20470;-80
2021/09/07 02:25:12;;;;;;;13.10;8.48;;;8.30;99.90;;;;;;5107727;28;20024;-80
2021/09/07 02:27:38;;;;;;;12.63;8.43;;;8.30;99.90;;;;;;5093888;28;20016;-80
2021/09/07 02:30:08;;;;;;;12.35;8.10;;;8.40;99.90;;;;;;5098325;28;20370;-80
2021/09/07 02:32:34;;;;;;;11.73;8.27;;;8.30;99.90;;;;;;5072235;28;20021;-81
2021/09/07 02:34:59;;;;;;;13.65;8.48;;;8.30;99.90;;;;;;5080915;28;20032;-80
2021/09/07 02:37:25;;;;;;;12.70;8.27;;;8.30;99.90;;;;;;5092267;28;20085;-80
2021/09/07 02:39:51;;;;;;;13.25;7.95;;;8.30;99.90;;;;;;5108601;28;20107;-81
2021/09/07 02:42:17;;;;;;;12.25;7.75;;;8.40;99.90;;;;;;5109471;28;20036;-81
2021/09/07 02:44:42;;;;;;;13.20;8.43;;;8.40;99.90;;;;;;5095217;28;20023;-80
2021/09/07 02:47:08;;;;;;;12.90;9.05;;;8.50;99.90;;;;;;5094846;28;20040;-80
2021/09/07 02:49:34;;;;;;;12.63;7.80;;;8.50;99.90;;;;;;5091345;28;20466;-81
2021/09/07 02:51:59;;;;;;;12.23;7.55;;;8.60;99.90;;;;;;5090217;28;20028;-80
2021/09/07 02:54:25;;;;;;;13.40;8.00;;;8.60;99.90;;;;;;5079562;28;20016;-80
2021/09/07 02:56:51;;;;;;;13.52;7.75;;;8.70;99.90;;;;;;5093430;28;20077;-80
2021/09/07 02:59:17;;;;;;;12.02;7.95;;;8.70;99.90;;;;;;5089175;28;20028;-81
2021/09/07 03:01:43;;;;;;;11.27;7.32;;;8.80;99.90;;;;;;5092065;28;20035;-80
2021/09/07 03:04:08;;;;;;;10.88;7.18;;;8.80;99.90;;;;;;5095925;28;20474;-80
2021/09/07 03:06:34;;;;;;;15.68;7.75;;;8.80;99.90;;;;;;5091875;28;20417;-80
2021/09/07 03:08:59;;;;;;;14.43;7.57;;;8.80;99.90;;;;;;5092512;28;20024;-80
2021/09/07 03:11:25;;;;;;;10.45;6.85;;;8.80;99.90;;;;;;5092151;28;20032;-81
2021/09/07 03:13:51;;;;;;;10.02;6.03;;;8.80;99.90;;;;;;5108475;28;20066;-81
2021/09/07 03:16:16;;;;;;;11.35;7.22;;;8.80;99.90;;;;;;5092249;28;20059;-80
2021/09/07 03:18:42;;;;;;;10.73;7.45;;;8.80;99.90;;;;;;5088754;28;20031;-80
2021/09/07 03:21:08;;;;;;;12.82;7.55;;;8.90;99.90;;;;;;5083202;28;20066;-80
2021/09/07 03:23:34;;;;;;;13.45;6.82;;;8.90;99.90;;;;;;5092438;28;20021;-80
2021/09/07 03:25:59;;;;;;;11.38;6.85;;;8.90;99.90;;;;;;5092709;28;20028;-80
2021/09/07 03:28:25;;;;;;;10.52;6.78;;;8.90;99.90;;;;;;5106840;28;20059;-80
2021/09/07 03:30:51;;;;;;;11.82;6.82;;;8.90;99.90;;;;;;5090672;28;20039;-80
2021/09/07 03:33:17;;;;;;;12.80;7.03;;;9.00;99.90;;;;;;5091622;28;20032;-80
2021/09/07 03:35:43;;;;;;;14.82;7.07;;;9.00;99.90;;;;;;5107657;28;20371;-80
2021/09/07 03:38:09;;;;;;;13.98;7.20;;;9.00;99.90;;;;;;5089723;28;20013;-80
2021/09/07 03:40:35;;;;;;;10.25;6.93;;;9.00;99.90;;;;;;5083710;28;20496;-80
2021/09/07 03:43:01;;;;;;;29.70;9.68;;;9.10;99.90;;;;;;5092879;28;20021;-80
2021/09/07 03:45:27;;;;;;;12.18;6.90;;;9.10;99.90;;;;;;5090398;28;20085;-80
2021/09/07 03:47:52;;;;;;;10.57;6.32;;;9.10;99.90;;;;;;5091578;28;20035;-80
2021/09/07 03:50:18;;;;;;;9.68;7.05;;;9.00;99.90;;;;;;5091321;28;20158;-80
2021/09/07 03:52:44;;;;;;;13.77;7.53;;;9.00;99.90;;;;;;5072820;28;20024;-80
2021/09/07 03:55:10;;;;;;;10.43;7.03;;;9.00;99.90;;;;;;5080388;28;20024;-79
2021/09/07 03:57:36;;;;;;;11.05;7.05;;;9.00;99.90;;;;;;5091328;28;20065;-80
2021/09/07 04:00:03;;;;;;;9.55;5.97;;;9.00;99.90;;;;;;5091931;28;20016;-80
2021/09/07 04:02:29;;;;;;;13.38;7.95;;;9.00;99.90;;;;;;5091281;28;20020;-80
2021/09/07 04:04:55;;;;;;;14.52;7.80;;;9.00;99.90;;;;;;5090214;28;20514;-80
2021/09/07 04:07:20;;;;;;;9.95;6.47;;;9.10;99.90;;;;;;5082672;28;20509;-80
2021/09/07 04:09:46;;;;;;;10.57;7.03;;;9.10;99.90;;;;;;5084192;28;20043;-80
2021/09/07 04:12:12;;;;;;;13.43;7.18;;;9.10;99.90;;;;;;5092535;28;20489;-80
2021/09/07 04:14:37;;;;;;;10.25;6.55;;;9.10;99.90;;;;;;5104427;28;20109;-80
2021/09/07 04:17:04;;;;;;;11.23;6.72;;;9.20;99.90;;;;;;5092554;28;20028;-80
2021/09/07 04:19:30;;;;;;;10.70;6.82;;;9.10;99.90;;;;;;5096927;28;20066;-80
2021/09/07 04:21:56;;;;;;;10.95;6.85;;;9.20;99.90;;;;;;5085540;28;20025;-79
2021/09/07 04:24:22;;;;;;;8.48;6.28;;;9.10;99.90;;;;;;5078212;28;20035;-79
2021/09/07 04:26:47;;;;;;;11.52;6.97;;;9.20;99.90;;;;;;5112035;28;20031;-80
2021/09/07 04:29:13;;;;;;;10.73;7.20;;;9.20;99.90;;;;;;5095420;28;20447;-82
2021/09/07 04:31:40;;;;;;;11.40;7.28;;;9.20;99.90;;;;;;5096085;28;20028;-80
2021/09/07 04:34:06;;;;;;;9.55;6.75;;;9.30;99.90;;;;;;5094039;28;20028;-80
2021/09/07 04:36:31;;;;;;;11.80;6.97;;;9.30;99.90;;;;;;5094520;28;20081;-80
2021/09/07 04:38:57;;;;;;;17.15;10.90;;;9.30;99.90;;;;;;5077322;28;20108;-80
2021/09/07 04:41:22;;;;;;;12.77;8.95;;;9.40;99.90;;;;;;5092326;28;20550;-80
2021/09/07 04:43:48;;;;;;;11.57;6.45;;;9.40;99.90;;;;;;5092466;28;20028;-80
2021/09/07 04:46:15;;;;;;;10.18;6.97;;;9.40;99.90;;;;;;5092691;28;20107;-80
2021/09/07 04:48:41;;;;;;;10.68;6.95;;;9.40;99.90;;;;;;5092040;28;20088;-80
2021/09/07 04:51:07;;;;;;;13.52;7.53;;;9.50;99.90;;;;;;5093192;28;20379;-80
2021/09/07 04:53:32;;;;;;;15.43;7.15;;;9.50;99.90;;;;;;5089246;28;20370;-80
2021/09/07 04:55:58;;;;;;;10.98;6.82;;;9.50;99.90;;;;;;5093090;28;20040;-80
2021/09/07 04:58:24;;;;;;;14.75;7.45;;;9.60;99.90;;;;;;5104682;28;20028;-79
2021/09/07 05:00:49;;;;;;;10.70;6.88;;;9.70;99.90;;;;;;5092672;28;20104;-80
2021/09/07 05:03:15;;;;;;;12.52;6.88;;;9.70;99.90;;;;;;5106830;28;20032;-80
2021/09/07 05:05:41;;;;;;;10.65;7.18;;;9.70;99.90;;;;;;5091500;28;20040;-80
2021/09/07 05:08:06;;;;;;;10.50;6.90;;;9.80;99.90;;;;;;5110264;28;20039;-81
2021/09/07 05:10:32;;;;;;;16.73;7.65;;;9.80;99.90;;;;;;5107801;28;20063;-81
2021/09/07 05:12:58;;;;;;;9.93;7.22;;;9.90;99.90;;;;;;5093228;28;20123;-81
2021/09/07 05:15:24;;;;;;;9.90;6.28;;;9.90;99.90;;;;;;5091870;28;20036;-82
2021/09/07 05:17:50;;;;;;;11.70;7.00;;;10.00;99.90;;;;;;5083925;28;20527;-82
2021/09/07 05:20:16;;;;;;;15.65;6.82;;;10.00;99.90;;;;;;5094504;28;20102;-82
2021/09/07 05:22:41;;;;;;;12.35;6.50;;;10.10;99.90;;;;;;5093902;28;20404;-82
2021/09/07 05:25:08;;;;;;;14.02;6.53;;;10.20;99.90;;;;;;5096628;28;20508;-82
2021/09/07 05:27:35;;;;;;;14.70;7.95;;;10.30;99.90;;;;;;5093488;28;20370;-82
2021/09/07 05:30:05;;;;;;;23.20;7.70;;;10.40;99.90;;;;;;5085439;28;20540;-83
2021/09/07 05:32:30;;;;;;;10.75;6.35;;;10.50;99.90;;;;;;5092073;28;20036;-83
2021/09/07 05:34:56;;;;;;;10.88;6.47;;;10.60;99.90;;;;;;5093451;28;20028;-83
2021/09/07 05:37:22;;;;;;;10.73;7.28;;;10.70;99.90;;;;;;5093621;28;20024;-83
2021/09/07 05:39:47;;;;;;;9.07;5.88;;;10.80;99.90;;;;;;5092688;28;20103;-83
2021/09/07 05:42:13;;;;;;;13.13;7.00;;;10.90;99.90;;;;;;5093462;28;20497;-83
2021/09/07 05:44:39;;;;;;;15.50;7.95;;;10.90;99.90;;;;;;5090843;28;20020;-83
2021/09/07 05:47:05;;;;;;;10.50;6.82;;;11.00;99.90;;;;;;5091767;28;20397;-83
2021/09/07 05:49:31;;;;;;;11.32;6.15;;;11.10;99.90;;;;;;5099259;28;20382;-83
2021/09/07 05:51:57;;;;;;;10.82;6.85;;;11.30;99.90;;;;;;5091279;28;20478;-81
2021/09/07 05:54:23;;;;;;;9.40;6.45;;;11.40;99.90;;;;;;5092650;28;20023;-80
2021/09/07 05:56:49;;;;;;;11.27;6.40;;;11.50;99.90;;;;;;5098498;28;20028;-80
2021/09/07 05:59:16;;;;;;;9.10;5.93;;;11.60;99.90;;;;;;5100250;28;20048;-80
2021/09/07 06:01:42;;;;;;;11.10;6.03;;;11.60;99.90;;;;;;5091443;28;20023;-80
2021/09/07 06:04:08;;;;;;;9.35;6.20;;;11.80;99.90;;;;;;5093038;28;20027;-80
2021/09/07 06:06:33;;;;;;;12.70;6.93;;;11.90;99.90;;;;;;5093965;28;20104;-81
2021/09/07 06:08:59;;;;;;;12.27;6.45;;;12.00;99.90;;;;;;5100845;28;20024;-81
2021/09/07 06:11:25;;;;;;;10.75;6.57;;;12.20;99.90;;;;;;5099111;28;20043;-80
2021/09/07 06:13:51;;;;;;;11.52;6.50;;;12.30;99.90;;;;;;5100971;28;20047;-81
2021/09/07 06:16:16;;;;;;;9.95;5.95;;;12.40;99.90;;;;;;5091405;28;20030;-80
2021/09/07 06:18:42;;;;;;;8.48;5.68;;;12.50;99.90;;;;;;5103021;28;20023;-80
2021/09/07 06:21:07;;;;;;;8.48;5.65;;;12.60;99.90;;;;;;5091692;28;20036;-81
2021/09/07 06:23:33;;;;;;;9.70;6.60;;;12.70;99.90;;;;;;5090600;28;20500;-80
2021/09/07 06:25:59;;;;;;;7.97;5.57;;;12.80;99.90;;;;;;5083161;28;20117;-81
2021/09/07 06:28:26;;;;;;;8.23;6.00;;;12.90;99.90;;;;;;5092158;28;20471;-81
2021/09/07 06:30:52;;;;;;;8.23;5.45;;;13.00;99.90;;;;;;5091297;28;20036;-81
2021/09/07 06:33:17;;;;;;;12.27;6.30;;;13.10;99.90;;;;;;5109628;28;20393;-81
2021/09/07 06:35:43;;;;;;;9.20;6.35;;;13.10;99.90;;;;;;5107939;28;20164;-81
2021/09/07 06:38:10;;;;;;;7.38;5.00;;;13.20;99.90;;;;;;5109131;28;20481;-81
2021/09/07 06:40:35;;;;;;;7.20;5.10;;;13.30;99.90;;;;;;5091439;28;20102;-80
2021/09/07 06:43:01;;;;;;;8.45;6.05;;;13.40;99.90;;;;;;5095749;28;20054;-80
2021/09/07 06:45:27;;;;;;;10.90;6.03;;;13.50;99.90;;;;;;5090831;28;20020;-80
2021/09/07 06:47:52;;;;;;;10.68;6.82;;;13.80;99.90;;;;;;5092310;28;20024;-80
2021/09/07 06:50:18;;;;;;;11.55;6.93;;;14.10;99.90;;;;;;5091544;28;20028;-80
2021/09/07 06:52:43;;;;;;;10.27;7.13;;;14.40;99.90;;;;;;5091749;28;20473;-80
2021/09/07 06:55:09;;;;;;;9.32;5.55;;;14.60;99.90;;;;;;5092771;28;20032;-79
2021/09/07 06:57:35;;;;;;;8.63;6.15;;;14.70;99.90;;;;;;5093477;28;20037;-79
2021/09/07 07:00:04;;;;;;;7.40;5.28;;;14.80;99.90;;;;;;5090907;28;20020;-80
2021/09/07 07:02:31;;;;;;;8.88;5.18;;;14.80;99.90;;;;;;5089103;28;20019;-80
2021/09/07 07:04:56;;;;;;;8.70;5.93;;;14.90;99.90;;;;;;5088009;28;20089;-80
2021/09/07 07:07:22;;;;;;;9.43;4.93;;;14.90;99.90;;;;;;5091190;28;20481;-80
2021/09/07 07:09:48;;;;;;;9.98;5.95;;;14.90;99.90;;;;;;5091788;28;20028;-81
2021/09/07 07:12:13;;;;;;;8.07;5.25;;;15.00;99.90;;;;;;5092584;28;20028;-81
2021/09/07 07:14:39;;;;;;;16.08;7.82;;;15.10;99.90;;;;;;5091902;28;20031;-80
2021/09/07 07:17:05;;;;;;;12.80;6.60;;;15.20;99.90;;;;;;5090991;28;20024;-81
2021/09/07 07:19:30;;;;;;;8.85;5.68;;;15.30;99.90;;;;;;5081450;28;20082;-81
2021/09/07 07:21:56;;;;;;;10.50;5.68;;;15.40;99.90;;;;;;5088932;28;20027;-81
2021/09/07 07:24:22;;;;;;;16.23;6.57;;;15.60;98.10;;;;;;5108100;28;20028;-81
2021/09/07 07:26:47;;;;;;;9.38;5.68;;;15.70;95.40;;;;;;5091674;28;20485;-81
2021/09/07 07:29:13;;;;;;;12.80;5.85;;;15.90;94.60;;;;;;5090648;28;20032;-80
2021/09/07 07:31:42;;;;;;;10.95;6.15;;;16.10;93.80;;;;;;5091378;28;20036;-80
2021/09/07 07:34:08;;;;;;;11.05;6.35;;;16.30;92.00;;;;;;5108628;28;20028;-80
2021/09/07 07:36:34;;;;;;;8.38;5.68;;;16.50;90.40;;;;;;5090464;28;20032;-80
2021/09/07 07:39:01;;;;;;;14.38;6.43;;;16.70;83.80;;;;;;5091325;28;20367;-80
2021/09/07 07:41:27;;;;;;;9.82;6.00;;;16.90;86.80;;;;;;5091613;28;20492;-80
2021/09/07 07:43:52;;;;;;;9.68;5.47;;;17.00;84.30;;;;;;5091859;28;20394;-80
2021/09/07 07:46:18;;;;;;;9.60;5.45;;;17.10;87.40;;;;;;5091160;28;20024;-80
2021/09/07 07:48:44;;;;;;;8.38;5.95;;;17.10;86.20;;;;;;5091821;28;20028;-80
2021/09/07 07:51:11;;;;;;;8.75;5.15;;;17.30;86.20;;;;;;5089953;28;20493;-80
2021/09/07 07:53:37;;;;;;;10.93;6.20;;;17.40;79.30;;;;;;5092773;28;20032;-80
2021/09/07 07:56:03;;;;;;;6.85;4.88;;;17.60;79.10;;;;;;5109805;28;20028;-80
2021/09/07 07:58:29;;;;;;;7.72;5.18;;;17.70;78.80;;;;;;5096863;28;20031;-80
2021/09/07 08:00:55;;;;;;;7.00;4.68;;;17.80;79.30;;;;;;5096046;28;20051;-80
2021/09/07 08:03:21;;;;;;;27.52;6.55;;;17.70;78.30;;;;;;5096834;28;20023;-80
2021/09/07 08:05:46;;;;;;;8.32;4.70;;;17.80;78.20;;;;;;5094563;28;20028;-81
2021/09/07 08:08:12;;;;;;;8.60;5.30;;;17.70;79.20;;;;;;5096767;28;20496;-80
2021/09/07 08:10:39;;;;;;;10.00;5.13;;;17.90;81.30;;;;;;5095774;28;20023;-81
2021/09/07 08:13:05;;;;;;;7.88;4.65;;;18.00;78.90;;;;;;5095119;28;20034;-80
2021/09/07 08:15:30;;;;;;;7.63;5.18;;;18.00;77.20;;;;;;5094310;28;20028;-81
2021/09/07 08:17:56;;;;;;;10.00;5.05;;;18.00;75.10;;;;;;5096541;28;20027;-80
2021/09/07 08:20:22;;;;;;;9.52;5.25;;;17.90;76.50;;;;;;5094055;28;20016;-81
2021/09/07 08:22:48;;;;;;;7.55;5.07;;;18.10;80.40;;;;;;5096294;28;20028;-81
2021/09/07 08:25:13;;;;;;;6.32;4.65;;;18.20;78.60;;;;;;5095905;28;20488;-81
2021/09/07 08:27:39;;;;;;;9.00;4.82;;;18.40;79.80;;;;;;5096389;28;20070;-81
2021/09/07 08:30:06;;;;;;;8.48;4.90;;;18.60;76.20;;;;;;5094282;28;20028;-81
2021/09/07 08:32:32;;;;;;;10.77;5.15;;;18.70;72.10;;;;;;5096115;28;20043;-81
2021/09/07 08:34:57;;;;;;;8.93;4.88;;;18.90;70.40;;;;;;5093842;28;20138;-81
2021/09/07 08:37:23;;;;;;;7.20;4.55;;;19.00;67.00;;;;;;5094902;28;20380;-81
2021/09/07 08:39:49;;;;;;;7.85;5.15;;;19.10;67.80;;;;;;5095681;28;20028;-81
2021/09/07 08:42:14;;;;;;;7.13;5.30;;;19.20;65.10;;;;;;5094547;28;20028;-81
2021/09/07 08:44:46;;;;;;;7.03;4.50;;;19.20;63.00;;;;;;5109136;28;20028;-82
2021/09/07 08:47:14;;;;;;;11.27;5.28;;;18.90;61.80;;;;;;5095762;28;20028;-82
2021/09/07 08:49:42;;;;;;;7.88;5.50;;;18.80;61.80;;;;;;5110794;28;20088;-82
2021/09/07 08:52:08;;;;;;;13.93;5.68;;;18.90;62.70;;;;;;5095812;28;20036;-82
2021/09/07 08:54:35;;;;;;;7.53;5.25;;;18.90;64.60;;;;;;5110689;28;20104;-82
2021/09/07 08:57:01;;;;;;;13.45;5.70;;;18.90;64.30;;;;;;5095755;28;20377;-81
2021/09/07 08:59:28;;;;;;;10.55;5.38;;;19.00;64.20;;;;;;5094893;28;20027;-82
2021/09/07 09:01:56;;;;;;;9.23;5.30;;;19.00;66.60;;;;;;5095621;28;20034;-82
2021/09/07 09:04:32;;;;;;;8.38;5.28;;;19.20;69.50;;;;;;5095592;28;20099;-82
2021/09/07 09:06:57;;;;;;;10.25;5.57;;;19.40;71.70;;;;;;5092512;28;20058;-82
2021/09/07 09:09:38;;;;;;;10.73;6.15;;;19.40;64.70;;;;;;5093495;28;20109;-82
2021/09/07 09:12:05;;;;;;;11.02;5.95;;;19.40;65.00;;;;;;5091189;28;20040;-82
2021/09/07 09:14:46;;;;;;;10.13;6.03;;;19.30;64.20;;;;;;5084773;28;20078;-82
2021/09/07 09:17:17;;;;;;;9.27;6.68;;;19.30;63.90;;;;;;5080093;28;20025;-82
2021/09/07 09:19:53;;;;;;;7.33;5.50;;;19.50;64.50;;;;;;5092396;28;20028;-82
2021/09/07 09:22:20;;;;;;;8.90;6.03;;;19.50;64.30;;;;;;5075392;28;20016;-82
2021/09/07 09:24:46;;;;;;;11.32;6.40;;;19.50;63.20;;;;;;5080408;28;20382;-82
2021/09/07 09:27:12;;;;;;;11.18;6.20;;;19.60;64.40;;;;;;5074767;28;20021;-82
2021/09/07 09:29:42;;;;;;;11.77;5.60;;;19.60;63.30;;;;;;5084632;28;20027;-82
2021/09/07 09:32:12;;;;;;;6.38;5.10;;;19.80;64.30;;;;;;5074641;28;20122;-82
2021/09/07 09:34:40;;;;;;;8.60;5.63;;;19.70;62.70;;;;;;5103415;28;20461;-82
2021/09/07 09:37:08;;;;;;;8.95;6.00;;;19.80;63.70;;;;;;5094980;28;20052;-82
2021/09/07 09:39:35;;;;;;;12.13;6.28;;;19.80;64.10;;;;;;5100261;28;20543;-82
2021/09/07 09:42:01;;;;;;;8.68;5.97;;;19.80;64.80;;;;;;5074379;28;20052;-82
2021/09/07 09:44:28;;;;;;;7.78;5.70;;;19.70;65.50;;;;;;5087807;28;20322;-82
2021/09/07 09:46:54;;;;;;;10.02;6.57;;;19.80;65.20;;;;;;5094382;28;20020;-82
2021/09/07 09:49:21;;;;;;;7.78;6.03;;;20.00;63.00;;;;;;5094493;28;20032;-83
2021/09/07 09:51:48;;;;;;;12.10;7.47;;;20.10;64.40;;;;;;5089020;28;20040;-82
2021/09/07 09:54:14;;;;;;;8.10;5.90;;;20.30;63.90;;;;;;5103268;28;20119;-82
2021/09/07 09:56:40;;;;;;;10.20;6.78;;;20.40;65.90;;;;;;5094556;28;20127;-83
2021/09/07 09:59:07;;;;;;;11.60;7.38;;;20.50;64.70;;;;;;5088918;28;20103;-82
2021/09/07 10:01:34;;;;;;;7.85;6.30;;;20.50;64.50;;;;;;5093187;28;20035;-82
2021/09/07 10:04:01;;;;;;;13.80;6.40;;;20.60;62.20;;;;;;5109551;28;20024;-83
2021/09/07 10:06:27;;;;;;;9.55;6.80;;;20.60;63.80;;;;;;5091374;28;20024;-83
2021/09/07 10:08:53;;;;;;;11.68;6.35;;;20.70;65.80;;;;;;5110009;28;20067;-82
2021/09/07 10:11:26;;;;;;;10.38;6.13;;;20.80;68.20;;;;;;5093463;28;20370;-82
2021/09/07 10:13:55;;;;;;;11.60;7.38;;;20.90;65.00;;;;;;5092830;28;20027;-83
2021/09/07 10:16:41;;;;;;;9.10;6.50;;;20.80;63.70;;;;;;5103795;28;20027;-83
2021/09/07 10:26:42;;;;;;;10.68;7.00;;;21.00;67.80;;;;;;5094234;28;20028;-82
2021/09/07 10:29:20;;;;;;;11.93;7.20;;;21.20;66.10;;;;;;5090404;28;20020;-83
2021/09/07 10:31:50;;;;;;;12.10;7.15;;;21.20;65.20;;;;;;5093515;28;20500;-83
2021/09/07 10:34:25;;;;;;;12.77;7.22;;;21.10;63.20;;;;;;5087179;28;20024;-83
2021/09/07 10:37:00;;;;;;;9.70;6.53;;;21.20;63.70;;;;;;5092901;28;20113;-83
2021/09/07 10:39:35;;;;;;;10.80;7.43;;;21.20;66.20;;;;;;5091476;28;20492;-83
2021/09/07 10:42:06;;;;;;;14.40;7.07;;;21.20;64.80;;;;;;5093761;28;20078;-83
2021/09/07 10:44:32;;;;;;;19.17;8.38;;;21.40;67.10;;;;;;5091601;28;20016;-83
2021/09/07 10:47:06;;;;;;;16.23;7.35;;;21.30;64.40;;;;;;5093135;28;20107;-83
2021/09/07 10:49:36;;;;;;;16.63;7.47;;;21.30;61.50;;;;;;5092357;28;20381;-83
2021/09/07 10:52:05;;;;;;;15.23;8.52;;;21.30;63.30;;;;;;5092806;28;20043;-83
2021/09/07 10:54:32;;;;;;;15.45;7.65;;;21.30;61.30;;;;;;5092784;28;20024;-83
2021/09/07 10:56:59;;;;;;;15.82;7.22;;;21.30;62.30;;;;;;5093392;28;20099;-83
2021/09/07 10:59:43;;;;;;;10.88;7.53;;;21.30;61.90;;;;;;5089219;28;20081;-83
2021/09/07 11:02:31;;;;;;;13.23;7.22;;;21.50;63.20;;;;;;5092109;28;20035;-83
2021/09/07 11:05:02;;;;;;;10.45;6.82;;;21.60;62.70;;;;;;5077018;28;20024;-83
2021/09/07 11:07:42;;;;;;;13.30;7.35;;;21.60;60.80;;;;;;5093247;28;20027;-83
2021/09/07 11:10:17;;;;;;;10.55;7.00;;;21.70;61.70;;;;;;5092513;28;20382;-83
2021/09/07 11:12:57;;;;;;;8.07;6.68;;;21.80;63.90;;;;;;5093143;28;20036;-83
2021/09/07 11:15:25;;;;;;;13.93;7.22;;;21.80;61.20;;;;;;5087237;28;20020;-83
2021/09/07 11:17:51;;;;;;;11.43;7.53;;;21.70;60.20;;;;;;5083131;28;20024;-83
2021/09/07 11:20:18;;;;;;;9.82;7.50;;;21.90;65.00;;;;;;5099822;28;20401;-84
2021/09/07 11:22:44;;;;;;;11.93;8.23;;;21.90;61.40;;;;;;5101879;28;20016;-82
2021/09/07 11:25:13;;;;;;;11.05;7.28;;;21.90;60.40;;;;;;5083003;28;20039;-83
2021/09/07 11:28:05;;;;;;;12.32;7.47;;;21.90;59.00;;;;;;5092329;28;20028;-83
2021/09/07 11:30:35;;;;;;;11.52;7.68;;;21.90;61.10;;;;;;5088140;28;20028;-83
2021/09/07 11:33:04;;;;;;;8.70;6.70;;;21.90;60.20;;;;;;5092004;28;20032;-83
2021/09/07 11:35:42;;;;;;;10.90;7.70;;;22.00;60.60;;;;;;5087748;28;20028;-83
2021/09/07 11:38:09;;;;;;;12.85;8.52;;;22.00;60.10;;;;;;5090983;28;20032;-83
2021/09/07 11:40:44;;;;;;;10.70;8.40;;;22.10;59.30;;;;;;5092024;28;20432;-84
2021/09/07 11:43:11;;;;;;;20.70;12.00;;;22.00;57.10;;;;;;5089869;28;20462;-84
2021/09/07 11:45:38;;;;;;;17.42;11.48;;;22.00;57.40;;;;;;5085478;28;20036;-83
2021/09/07 11:48:05;;;;;;;12.18;9.73;;;22.00;60.70;;;;;;5093876;28;20055;-84
2021/09/07 11:50:36;;;;;;;11.52;8.38;;;22.20;58.60;;;;;;5088767;28;20024;-83
2021/09/07 11:53:05;;;;;;;15.18;8.60;;;22.10;56.80;;;;;;5101130;28;20047;-83
2021/09/07 11:55:50;;;;;;;13.75;8.93;;;22.20;58.60;;;;;;5081143;28;20046;-83
2021/09/07 11:58:45;;;;;;;11.73;7.97;;;22.20;56.50;;;;;;5088160;28;20044;-83
2021/09/07 12:01:12;;;;;;;12.30;8.15;;;22.10;56.30;;;;;;5077028;28;20123;-83
2021/09/07 12:03:51;;;;;;;15.30;9.07;;;22.20;59.20;;;;;;5077301;28;20144;-84
2021/09/07 12:06:41;;;;;;;12.00;7.82;;;22.20;58.60;;;;;;5106093;28;20047;-84
2021/09/07 12:09:19;;;;;;;13.05;8.38;;;22.20;56.70;;;;;;5089319;28;20115;-85
2021/09/07 12:12:04;;;;;;;12.98;9.05;;;22.30;57.20;;;;;;5089384;28;20501;-84
2021/09/07 12:14:47;;;;;;;13.55;7.90;;;22.30;58.10;;;;;;5080181;28;20109;-83
2021/09/07 12:17:19;;;;;;;12.75;8.90;;;22.50;60.30;;;;;;5110450;28;20027;-83
2021/09/07 12:19:50;;;;;;;11.18;9.02;;;22.50;60.00;;;;;;5091419;28;20039;-83
2021/09/07 12:22:48;;;;;;;12.05;9.43;;;22.50;59.00;;;;;;5089986;28;20020;-83
2021/09/07 12:25:15;;;;;;;14.55;9.02;;;22.50;59.00;;;;;;5057584;28;20058;-83
2021/09/07 12:27:45;;;;;;;16.17;8.80;;;22.40;59.50;;;;;;5086234;28;20024;-83
2021/09/07 12:30:21;;;;;;;13.55;9.35;;;22.50;58.80;;;;;;5095859;28;20101;-83
2021/09/07 12:32:51;;;;;;;13.30;9.82;;;22.50;59.40;;;;;;5071887;28;20482;-84
2021/09/07 12:35:32;;;;;;;16.48;10.55;;;22.50;60.00;;;;;;5075259;28;20040;-82
2021/09/07 12:38:00;;;;;;;15.40;9.10;;;22.50;59.00;;;;;;5079408;28;20028;-83
2021/09/07 12:40:27;;;;;;;17.23;9.68;;;22.50;59.40;;;;;;5090557;28;20261;-83
2021/09/07 12:42:52;;;;;;;12.00;9.93;;;22.60;60.30;;;;;;5087936;28;20028;-83
2021/09/07 12:45:18;;;;;;;17.02;11.00;;;22.50;60.10;;;;;;5105548;28;20033;-83
2021/09/07 12:47:43;;;;;;;19.45;11.73;;;22.70;62.00;;;;;;5093587;28;20048;-83
2021/09/07 12:50:10;;;;;;;17.65;11.60;;;22.60;59.70;;;;;;5091473;28;20405;-82
2021/09/07 12:52:35;;;;;;;19.90;10.32;;;22.50;59.40;;;;;;5092540;28;20024;-82